This is the latest recevied weather packets stored in our database for station/object KC4GS-13. If no packets are shown the sender has not sent any weather packets the latest 10 day(s).
| Time | Temp. | Humidity | Pressure | Rain* | Wind** | Luminosity | Snow |
|---|---|---|---|---|---|---|---|
| 1777580382 | 27.22° C | 58% | 1010.1 hPa | 0 mm | - | 260 W/m² | - |
| 1777580079 | 27.78° C | 56% | 1010.2 hPa | 0 mm | - | 372 W/m² | - |
| 1777579775 | 27.22° C | 60% | 1010.2 hPa | 0 mm | - | 235 W/m² | - |
| 1777579472 | 26.67° C | 60% | 1010.1 hPa | 0 mm | - | 635 W/m² | - |
| 1777579168 | 26.67° C | 59% | 1010.3 hPa | 0 mm | - | 497 W/m² | - |
| 1777578863 | 26.11° C | 61% | 1010.1 hPa | 0 mm | - | 577 W/m² | - |
| 1777578560 | 26.67° C | 60% | 1010.1 hPa | 0 mm | - | 190 W/m² | - |
| 1777578254 | 27.22° C | 59% | 1010.2 hPa | 0 mm | - | 105 W/m² | - |
| 1777577950 | 26.11° C | 61% | 1010.2 hPa | 0 mm | - | 726 W/m² | - |
| 1777577645 | 26.67° C | 61% | 1010.4 hPa | 0 mm | - | 728 W/m² | - |
| 1777577343 | 26.67° C | 61% | 1010.3 hPa | 0 mm | - | 682 W/m² | - |
| 1777577038 | 25.56° C | 64% | 1010.5 hPa | 0 mm | - | 700 W/m² | - |
| 1777576736 | 25° C | 65% | 1010.7 hPa | 0 mm | - | 748 W/m² | - |
| 1777576434 | 25° C | 65% | 1010.4 hPa | 0 mm | - | 778 W/m² | - |
| 1777576132 | 25° C | 65% | 1010.5 hPa | 0 mm | - | 112 W/m² | - |
| 1777575827 | 26.11° C | 63% | 1010.7 hPa | 0 mm | - | 91 W/m² | - |
| 1777575524 | 26.11° C | 64% | 1010.8 hPa | 0 mm | - | 744 W/m² | - |
| 1777575219 | 26.11° C | 63% | 1010.9 hPa | 0 mm | - | 370 W/m² | - |
| 1777574916 | 26.11° C | 62% | 1010.9 hPa | 0 mm | - | 265 W/m² | - |
| 1777574612 | 26.11° C | 64% | 1010.9 hPa | 0 mm | - | 791 W/m² | - |
| 1777574309 | 25.56° C | 67% | 1010.8 hPa | 0 mm | - | 808 W/m² | - |
| 1777574004 | 25° C | 67% | 1010.7 hPa | 0 mm | - | 422 W/m² | - |
| 1777573699 | 25° C | 69% | 1011 hPa | 0 mm | - | 652 W/m² | - |
| 1777573396 | 24.44° C | 69% | 1011 hPa | 0 mm | - | 442 W/m² | - |
| 1777573091 | 23.89° C | 70% | 1011.1 hPa | 0 mm | - | 337 W/m² | - |
* Rain latest hour (hover to see other rain measurements)
** Current wind speed in m/s (hover to see current wind gust speed)